Latest Weather Observations for Ben Nevis

IDV60801

Issued at 10:05 pm EST Sunday 21 September 2014 (issued every 30 minutes, with the page automatically refreshed every 10 minutes)

About weather observations | Map of weather stations | Latest weather observations for VIC | Other Formats
Station Details ID: 079101 Name: BEN NEVIS Lat: -37.23 Lon: 143.20 Height: 875.0 m
Data from the previous 72 hours. | See also: Recent months at Ben Nevis
Date/Time
EST
Temp
°C
App
Temp
°C
Dew
Point
Rel
Hum
%
Delta-T
°C
Wind Press
QNH
hPa
Press
MSL
hPa
Rain
since 9 am
mm
Dir
 
Spd
km/h
Gust
km/h
Spd
kts
Gust
kts
21/10:00pm 9.0 6.1 2.8 65 2.8 ESE 7 9 4 5 - - 0.0
21/09:30pm 9.3 6.1 0.5 54 3.8 ESE 7 9 4 5 - - 0.0
21/09:00pm 9.1 7.7 3.3 67 2.6 CALM 0 6 0 3 - - 0.0
21/08:30pm 9.2 6.5 3.6 68 2.6 ESE 7 11 4 6 - - 0.0
21/08:00pm 9.2 6.1 3.8 69 2.5 ESE 9 13 5 7 - - 0.0
21/07:30pm 9.5 6.4 3.7 67 2.7 ESE 9 13 5 7 - - 0.0
21/07:00pm 9.8 6.4 3.8 66 2.8 ESE 11 13 6 7 - - 0.0
21/06:30pm 10.0 7.1 4.8 70 2.5 N 9 13 5 7 - - 0.0
21/06:00pm 10.4 9.1 5.8 73 2.2 N 2 7 1 4 - - 0.0
21/05:30pm 10.9 8.9 6.1 72 2.4 N 6 9 3 5 - - 0.0
21/05:00pm 11.8 10.1 5.9 67 2.9 N 4 7 2 4 - - 0.0
21/04:30pm 12.5 10.4 5.9 64 3.3 N 6 11 3 6 - - 0.0
21/04:00pm 13.6 11.7 6.5 62 3.6 N 6 9 3 5 - - 0.0
21/03:30pm 13.6 11.5 6.7 63 3.5 N 7 11 4 6 - - 0.0
21/03:00pm 13.9 12.3 6.3 60 3.8 N 4 9 2 5 - - 0.0
21/02:30pm 13.8 11.4 6.9 63 3.5 N 9 15 5 8 - - 0.0
21/02:00pm 13.2 10.9 5.9 61 3.6 NNE 7 11 4 6 - - 0.0
21/01:30pm 13.8 11.9 6.9 63 3.5 NNE 6 11 3 6 - - 0.0
21/01:00pm 12.8 10.5 5.7 62 3.5 NNE 7 13 4 7 - - 0.0
21/12:30pm 12.7 10.4 5.8 63 3.4 NNE 7 11 4 6 - - 0.0
21/12:00pm 12.1 9.8 5.7 65 3.1 SSW 7 11 4 6 - - 0.0
21/11:30am 11.2 8.8 5.3 67 2.8 SSW 7 13 4 7 - - 0.0
21/11:00am 10.8 7.9 4.9 67 2.8 ESE 9 13 5 7 - - 0.0
21/10:30am 10.2 7.9 5.0 70 2.5 E 6 9 3 5 - - 0.0
21/10:00am 10.2 7.9 4.6 68 2.6 E 6 9 3 5 - - 0.0
21/09:30am 8.4 4.9 3.5 71 2.2 E 11 13 6 7 - - 0.0
21/09:00am 6.4 1.5 1.9 73 1.9 ESE 17 24 9 13 - - 0.2
21/08:30am 5.8 0.6 2.4 79 1.5 E 19 28 10 15 - - 0.2
21/08:00am 5.1 -0.2 2.1 81 1.3 ESE 19 26 10 14 - - 0.2
21/07:30am 4.6 -1.4 1.3 79 1.4 ESE 22 32 12 17 - - 0.2
21/07:00am 4.0 -3.2 1.0 81 1.2 ESE 28 35 15 19 - - 0.2
21/06:30am 3.1 -2.3 1.3 88 0.7 ESE 19 24 10 13 - - 0.2
21/06:00am 2.9 -1.4 1.1 88 0.7 SE 13 19 7 10 - - 0.2
21/05:30am 2.6 -2.1 1.0 89 0.6 SE 15 22 8 12 - - 0.2
21/05:00am 2.7 -2.0 1.2 90 0.6 SE 15 22 8 12 - - 0.2
21/04:30am 2.8 -1.4 1.5 91 0.5 ESE 13 20 7 11 - - 0.2
21/04:00am 2.9 -3.3 2.0 94 0.4 ESE 24 33 13 18 - - 0.2
21/03:30am 3.0 -0.3 2.3 95 0.3 SE 9 13 5 7 - - 0.2
21/03:00am 3.2 -2.0 2.6 96 0.3 SSE 19 37 10 20 - - 0.2
21/02:30am 3.0 -0.3 2.6 97 0.2 SSE 9 17 5 9 - - 0.2
21/02:00am 3.1 -0.9 2.7 97 0.2 SSE 13 20 7 11 - - 0.2
21/01:30am 3.3 0.0 2.6 95 0.3 SE 9 13 5 7 - - 0.2
21/01:00am 3.2 -0.4 2.8 97 0.2 SE 11 15 6 8 - - 0.2
21/12:30am 3.5 -0.4 3.2 98 0.1 SE 13 17 7 9 - - 0.2
21/12:00am 3.6 -0.3 3.3 98 0.1 ESE 13 19 7 10 - - 0.2
 
Date/Time
EST
Temp
°C
App
Temp
°C
Dew
Point
Rel
Hum
%
Delta-T
°C
Wind Press
QNH
hPa
Press
MSL
hPa
Rain
since 9 am
mm
Dir
 
Spd
km/h
Gust
km/h
Spd
kts
Gust
kts
20/11:30pm 3.7 -1.0 3.3 97 0.2 SE 17 22 9 12 - - 0.2
20/11:00pm 4.1 -1.9 3.4 95 0.3 ESE 24 33 13 18 - - 0.2
20/10:30pm 4.3 0.0 3.4 94 0.4 ESE 15 24 8 13 - - 0.2
20/10:00pm 4.6 0.0 3.6 93 0.4 ESE 17 28 9 15 - - 0.2
20/09:30pm 4.9 0.7 3.9 93 0.4 SE 15 24 8 13 - - 0.2
20/09:00pm 5.3 0.9 2.8 84 1.1 SE 15 24 8 13 - - 0.2
20/08:30pm 5.3 0.9 2.7 83 1.1 SSE 15 28 8 15 - - 0.2
20/08:00pm 5.6 1.4 1.9 77 1.6 SSE 13 26 7 14 - - 0.2
20/07:30pm 5.8 1.3 2.3 78 1.5 SSE 15 26 8 14 - - 0.2
20/07:00pm 6.1 1.2 2.0 75 1.8 S 17 26 9 14 - - 0.2
20/06:30pm 6.5 2.5 2.6 76 1.7 SSE 13 24 7 13 - - 0.2
20/06:00pm 7.0 3.0 2.7 74 1.9 S 13 22 7 12 - - 0.2
20/05:30pm 7.8 3.4 2.9 71 2.2 S 15 28 8 15 - - 0.2
20/05:00pm 8.7 4.8 3.3 69 2.4 S 13 20 7 11 - - 0.2
20/04:30pm 9.2 4.0 2.5 63 3.0 S 19 32 10 17 - - 0.2
20/04:00pm 9.9 6.4 3.6 65 2.9 S 11 20 6 11 - - 0.2
20/03:30pm 10.2 5.6 3.7 64 3.0 S 17 26 9 14 - - 0.2
20/03:00pm 10.6 6.4 3.6 62 3.2 SSW 15 26 8 14 - - 0.2
20/02:30pm 11.1 7.4 4.3 63 3.2 SSW 13 22 7 12 - - 0.2
20/02:00pm 11.4 8.0 4.2 61 3.4 SSW 11 20 6 11 - - 0.2
20/01:30pm 10.8 7.0 4.0 63 3.2 S 13 20 7 11 - - 0.2
20/01:00pm 10.0 6.8 3.1 62 3.1 S 9 13 5 7 - - 0.2
20/12:30pm 9.4 5.6 2.0 60 3.3 S 11 19 6 10 - - 0.2
20/12:00pm 8.7 4.6 2.3 64 2.8 SSE 13 19 7 10 - - 0.0
20/11:30am 8.9 5.3 3.1 67 2.6 S 11 20 6 11 - - 0.0
20/11:00am 7.2 3.5 2.3 71 2.1 SSE 11 19 6 10 - - 0.0
20/10:30am 7.4 3.3 2.5 71 2.2 S 13 24 7 13 - - 0.0
20/10:00am 6.9 2.8 2.0 71 2.1 S 13 19 7 10 - - 0.0
20/09:30am 6.1 1.8 1.2 71 2.1 SSE 13 26 7 14 - - 0.0
20/09:00am 5.6 0.9 1.2 73 1.8 S 15 30 8 16 - - 0.0
20/08:30am 4.8 -0.2 1.1 77 1.5 S 17 32 9 17 - - 0.0
20/08:00am 4.4 -0.6 1.3 80 1.3 S 17 24 9 13 - - 0.0
20/07:30am 4.1 -0.6 1.0 80 1.3 SSE 15 28 8 15 - - 0.0
20/07:00am 3.4 -2.0 1.0 84 1.0 S 19 28 10 15 - - 0.0
20/06:30am 2.9 -2.5 1.3 89 0.7 S 19 26 10 14 - - 0.0
20/06:00am 2.7 -2.0 0.8 87 0.8 S 15 32 8 17 - - 0.0
20/05:30am 2.7 -2.5 0.4 85 0.9 S 17 24 9 13 - - 0.0
20/05:00am 2.8 -2.7 0.5 85 0.9 S 19 28 10 15 - - 0.0
20/04:30am 2.9 -3.5 1.0 87 0.8 S 24 30 13 16 - - 0.0
20/04:00am 2.9 -2.7 1.0 87 0.8 S 20 32 11 17 - - 0.0
20/03:30am 3.1 -3.3 1.0 86 0.9 S 24 32 13 17 - - 0.0
20/03:00am 3.3 -2.6 1.7 89 0.7 S 22 32 12 17 - - 0.0
20/02:30am 3.3 -2.5 2.3 93 0.4 S 22 28 12 15 - - 0.0
20/02:00am 3.4 -2.3 2.8 96 0.3 S 22 30 12 16 - - 0.0
20/01:30am 3.3 -2.4 2.9 97 0.2 S 22 32 12 17 - - 0.0
20/01:00am 3.2 -2.0 2.6 96 0.3 S 19 30 10 16 - - 0.0
20/12:30am 3.5 -1.7 2.5 93 0.4 S 19 22 10 12 - - 0.0
20/12:00am 3.4 -1.4 2.7 95 0.3 SSE 17 20 9 11 - - 0.0
 
Date/Time
EST
Temp
°C
App
Temp
°C
Dew
Point
Rel
Hum
%
Delta-T
°C
Wind Press
QNH
hPa
Press
MSL
hPa
Rain
since 9 am
mm
Dir
 
Spd
km/h
Gust
km/h
Spd
kts
Gust
kts
19/11:30pm 3.4 -1.0 2.5 94 0.4 SSE 15 19 8 10 - - 0.0
19/11:00pm 3.6 -1.1 2.9 95 0.3 SSE 17 26 9 14 - - 0.0
19/10:30pm 3.6 -1.5 3.0 96 0.3 SSE 19 24 10 13 - - 0.0
19/10:00pm 3.8 -0.5 3.2 96 0.3 SSE 15 22 8 12 - - 0.0
19/09:30pm 4.0 -0.6 3.6 97 0.2 S 17 24 9 13 - - 0.0
19/09:00pm 4.5 0.4 4.1 97 0.2 S 15 24 8 13 - - 0.0
19/08:30pm 4.7 0.2 4.3 97 0.2 S 17 22 9 12 - - 0.0
19/08:00pm 5.2 1.2 4.8 97 0.2 S 15 22 8 12 - - 0.0
19/07:30pm 5.6 1.2 5.0 96 0.3 SSW 17 28 9 15 - - 0.0
19/07:00pm 6.0 2.3 4.3 89 0.8 SSW 13 26 7 14 - - 0.0
19/06:30pm 6.2 2.8 4.0 86 1.0 SSW 11 19 6 10 - - 0.0
19/06:00pm 6.7 3.2 3.7 81 1.3 SSW 11 17 6 9 - - 0.0
19/05:30pm 6.9 3.4 3.3 78 1.6 SSW 11 17 6 9 - - 0.0
19/05:00pm 7.4 3.4 2.9 73 2.0 SSW 13 22 7 12 - - 0.0
19/04:30pm 7.8 4.2 3.1 72 2.1 SSW 11 19 6 10 - - 0.0
19/04:00pm 8.0 3.5 2.0 66 2.6 SSW 15 22 8 12 - - 0.0
19/03:30pm 8.9 4.9 3.1 67 2.6 SSW 13 19 7 10 - - 0.0
19/03:00pm 10.2 6.2 2.8 60 3.4 SW 13 28 7 15 - - 0.0
19/02:30pm 8.8 5.1 4.2 73 2.1 SSW 13 24 7 13 - - 0.0
19/02:00pm 8.1 3.5 3.6 73 2.0 SSW 17 26 9 14 - - 0.0
19/01:30pm 9.7 5.4 3.0 63 3.0 SW 15 26 8 14 - - 0.0
19/01:00pm 8.1 3.7 2.6 68 2.4 SSW 15 26 8 14 - - 0.0
19/12:30pm 8.9 4.6 3.3 68 2.5 SSW 15 22 8 12 - - 0.0
19/12:00pm 8.4 4.6 3.8 73 2.1 SSW 13 20 7 11 - - 0.0
19/11:30am 8.2 4.4 3.9 74 2.0 SSW 13 22 7 12 - - 0.0
19/11:00am 6.4 2.0 2.9 78 1.5 SSW 15 24 8 13 - - 0.0
19/10:30am 6.6 2.3 3.4 80 1.4 SSW 15 30 8 16 - - 0.0
19/10:00am 6.1 2.0 4.1 87 0.9 SSW 15 24 8 13 - - 0.0
19/09:30am 5.1 1.0 4.4 95 0.3 S 15 26 8 14 - - 0.0
19/09:00am 4.2 -0.3 4.1 99 0.0 SSW 17 24 9 13 - - 0.2
19/08:30am 3.5 -1.2 3.4 99 0.0 SSW 17 30 9 16 - - 0.2
19/08:00am 3.4 -1.7 3.3 99 0.0 SSW 19 26 10 14 - - 0.2
19/07:30am 2.8 -2.6 2.7 99 0.0 SSW 20 28 11 15 - - 0.2
19/07:00am 2.6 -2.6 2.5 99 0.0 SSW 19 28 10 15 - - 0.2
19/06:30am 2.5 -3.7 2.4 99 0.0 SSW 24 33 13 18 - - 0.2
19/06:00am 2.2 -4.4 2.1 99 0.0 SSW 26 33 14 18 - - 0.0
19/05:30am 2.3 -4.3 2.2 99 0.0 S 26 35 14 19 - - 0.0
19/05:00am 2.1 -3.8 2.0 99 0.0 SSW 22 32 12 17 - - 0.0
19/04:30am 2.1 -2.8 2.0 99 0.0 SSW 17 26 9 14 - - 0.0
19/04:00am 1.9 -3.6 1.6 98 0.1 S 20 28 11 15 - - 0.0
19/03:30am 1.8 -3.6 1.4 97 0.2 S 19 24 10 13 - - 0.0
19/03:00am 1.7 -2.6 1.0 95 0.3 SSW 13 20 7 11 - - 0.0
19/02:30am 2.0 -2.7 0.8 92 0.5 S 15 24 8 13 - - 0.0
19/02:00am 2.4 -2.7 0.8 89 0.6 S 17 26 9 14 - - 0.0
19/01:30am 2.2 -2.9 0.6 89 0.6 S 17 26 9 14 - - 0.0
19/01:00am 2.2 -3.3 0.4 88 0.7 S 19 26 10 14 - - 0.0
19/12:30am 2.2 -2.9 0.6 89 0.6 S 17 28 9 15 - - 0.0
19/12:00am 2.2 -3.5 0.6 89 0.6 S 20 32 11 17 - - 0.0
 
Date/Time
EST
Temp
°C
App
Temp
°C
Dew
Point
Rel
Hum
%
Delta-T
°C
Wind Press
QNH
hPa
Press
MSL
hPa
Rain
since 9 am
mm
Dir
 
Spd
km/h
Gust
km/h
Spd
kts
Gust
kts
18/11:30pm 2.2 -3.5 0.6 89 0.6 S 20 30 11 16 - - 0.0
18/11:00pm 2.1 -3.5 0.9 92 0.5 S 20 28 11 15 - - 0.0
18/10:30pm 2.3 -3.7 0.8 90 0.6 S 22 35 12 19 - - 0.0

Other Formats:

Comma delimited format used in spreadsheet applications
http://www.bom.gov.au/fwo/IDV60801/IDV60801.94835.axf

JavaScript Object Notation format (JSON) in row-major order
http://www.bom.gov.au/fwo/IDV60801/IDV60801.94835.json